createdAt,value
2017-07-25T00:00:38.151Z,51.88
2017-07-25T00:01:38.180Z,51.2
2017-07-25T00:02:37.893Z,51.2
2017-07-25T00:03:38.233Z,51.78
2017-07-25T00:04:38.262Z,51.78
2017-07-25T00:05:38.287Z,51.68
2017-07-25T00:06:38.007Z,51.88
2017-07-25T00:07:38.345Z,51.59
2017-07-25T00:08:38.065Z,51.4
2017-07-25T00:09:38.406Z,51.3
2017-07-25T00:10:38.426Z,51.2
2017-07-25T00:11:38.460Z,51.68
2017-07-25T00:12:38.169Z,52.08
2017-07-25T00:13:38.512Z,51.4
2017-07-25T00:14:38.230Z,51.59
2017-07-25T00:15:38.264Z,52.08
2017-07-25T00:16:38.596Z,52.08
2017-07-25T00:17:38.628Z,51.59
2017-07-25T00:18:38.665Z,51.78
2017-07-25T00:19:38.931Z,51.78
2017-07-25T00:20:38.698Z,51.5
2017-07-25T00:21:38.424Z,51.78
2017-07-25T00:22:38.452Z,51.78
2017-07-25T00:23:38.785Z,51.68
2017-07-25T00:24:38.758Z,51.59
2017-07-25T00:25:38.863Z,51.59
2017-07-25T00:26:38.875Z,51.78
2017-07-25T00:27:38.905Z,51.78
2017-07-25T00:28:38.616Z,51.78
2017-07-25T00:29:39.210Z,51.5
2017-07-25T00:30:38.987Z,51.59
2017-07-25T00:31:39.014Z,51.68
2017-07-25T00:32:39.040Z,51.3
2017-07-25T00:33:39.070Z,51.3
2017-07-25T00:34:39.401Z,51.5
2017-07-25T00:35:38.806Z,51.3
2017-07-25T00:36:39.152Z,51.3
2017-07-25T00:37:39.181Z,51.1
2017-07-25T00:38:38.897Z,51.4
2017-07-25T00:39:39.178Z,51.59
2017-07-25T00:40:39.267Z,51.5
2017-07-25T00:41:39.295Z,51.3
2017-07-25T00:42:39.331Z,51.59
2017-07-25T00:43:39.356Z,51.5
2017-07-25T00:44:39.627Z,51.5
2017-07-25T00:45:39.403Z,51.59
2017-07-25T00:46:39.116Z,51.59
2017-07-25T00:47:39.461Z,51.3
2017-07-25T00:48:39.174Z,51.59
2017-07-25T00:49:39.814Z,51.59
2017-07-25T00:50:39.226Z,51.59
2017-07-25T00:51:39.260Z,51.68
2017-07-25T00:52:39.597Z,51.5
2017-07-25T00:53:39.626Z,51.4
2017-07-25T00:54:39.906Z,51.78
2017-07-25T00:55:39.378Z,51.68
2017-07-25T00:56:39.709Z,51.5
2017-07-25T00:57:39.736Z,51.59
2017-07-25T00:58:39.765Z,51.5
2017-07-25T00:59:40.050Z,51.5
2017-07-25T01:00:39.818Z,51.3
2017-07-25T01:01:39.844Z,51.3
2017-07-25T01:02:39.565Z,51.4
2017-07-25T01:03:39.904Z,51.4
2017-07-25T01:04:39.916Z,51.3
2017-07-25T01:05:39.967Z,51.3
2017-07-25T01:06:39.988Z,51.4
2017-07-25T01:07:40.013Z,51.4
2017-07-25T01:08:40.042Z,51.3
2017-07-25T01:09:40.010Z,51.4
2017-07-25T01:10:40.099Z,51.3
2017-07-25T01:11:39.811Z,51.5
2017-07-25T01:12:40.157Z,51.5
2017-07-25T01:13:40.181Z,51.59
2017-07-25T01:14:40.506Z,51.5
2017-07-25T01:15:39.919Z,51.1
2017-07-25T01:16:40.264Z,51.3
2017-07-25T01:17:40.309Z,51.3
2017-07-25T01:18:40.320Z,51.4
2017-07-25T01:19:40.592Z,51.4
2017-07-25T01:20:40.374Z,51.68
2017-07-25T01:21:40.403Z,51.59
2017-07-25T01:22:40.433Z,51.59
2017-07-25T01:23:40.469Z,51.68
2017-07-25T01:24:40.789Z,51.59
2017-07-25T01:25:40.203Z,51.68
2017-07-25T01:26:40.559Z,51.5
2017-07-25T01:27:40.260Z,51.59
2017-07-25T01:28:40.601Z,51.5
2017-07-25T01:29:40.579Z,51.5
2017-07-25T01:30:40.663Z,51.5
2017-07-25T01:31:40.683Z,51.2
2017-07-25T01:32:40.401Z,51.3
2017-07-25T01:33:40.736Z,51.68
2017-07-25T01:34:41.066Z,51.4
2017-07-25T01:35:40.795Z,51.3
2017-07-25T01:36:40.820Z,51.4
2017-07-25T01:37:40.852Z,51.59
2017-07-25T01:38:40.884Z,51.5
2017-07-25T01:39:41.196Z,51.3
2017-07-25T01:40:40.620Z,51.3
2017-07-25T01:41:40.960Z,51.3
2017-07-25T01:42:40.677Z,51.59
2017-07-25T01:43:41.017Z,51.3
2017-07-25T01:44:41.045Z,51.5
2017-07-25T01:45:41.075Z,51.3
2017-07-25T01:46:41.100Z,51.3
2017-07-25T01:47:40.813Z,51.3
2017-07-25T01:48:41.153Z,51.3
2017-07-25T01:49:41.178Z,51.3
2017-07-25T01:50:41.211Z,51.3
2017-07-25T01:51:41.235Z,51.4
2017-07-25T01:52:40.953Z,51.3
2017-07-25T01:53:40.980Z,51.5
2017-07-25T01:54:41.319Z,51.59
2017-07-25T01:55:41.347Z,51.4
2017-07-25T01:56:41.375Z,51.4
2017-07-25T01:57:41.093Z,51.5
2017-07-25T01:58:41.425Z,51.59
2017-07-25T01:59:41.455Z,51.68
2017-07-25T02:00:41.173Z,51.3
2017-07-25T02:01:41.523Z,51.59
2017-07-25T02:02:41.229Z,51.2
2017-07-25T02:03:41.572Z,51.5
2017-07-25T02:04:41.286Z,51.3
2017-07-25T02:05:41.314Z,51.3
2017-07-25T02:06:41.653Z,51.4
2017-07-25T02:07:41.370Z,51.4
2017-07-25T02:08:41.710Z,51.3
2017-07-25T02:09:41.428Z,51.5
2017-07-25T02:10:41.762Z,51.59
2017-07-25T02:11:41.799Z,51.3
2017-07-25T02:12:41.820Z,51.4
2017-07-25T02:13:41.853Z,51.4
2017-07-25T02:14:41.558Z,51.78
2017-07-25T02:15:41.904Z,51.88
2017-07-25T02:16:41.933Z,51.5
2017-07-25T02:17:41.649Z,51.5
2017-07-25T02:18:41.985Z,51.3
2017-07-25T02:19:42.011Z,51.5
2017-07-25T02:20:41.733Z,51.78
2017-07-25T02:21:42.068Z,51.59
2017-07-25T02:22:42.097Z,51.4
2017-07-25T02:23:42.129Z,51.78
2017-07-25T02:24:42.151Z,51.68
2017-07-25T02:25:42.179Z,51.59
2017-07-25T02:26:42.209Z,51.3
2017-07-25T02:27:42.233Z,51.59
2017-07-25T02:28:41.954Z,51.78
2017-07-25T02:29:42.291Z,51.59
2017-07-25T02:30:42.320Z,51.78
2017-07-25T02:31:42.349Z,51.68
2017-07-25T02:32:42.381Z,52.17
2017-07-25T02:33:42.087Z,52.08
2017-07-25T02:34:42.427Z,51.88
2017-07-25T02:35:42.147Z,52.08
2017-07-25T02:36:42.485Z,51.68
2017-07-25T02:37:42.201Z,51.88
2017-07-25T02:38:42.226Z,51.88
2017-07-25T02:39:42.572Z,51.88
2017-07-25T02:40:42.284Z,51.68
2017-07-25T02:41:42.309Z,51.78
2017-07-25T02:42:42.649Z,51.78
2017-07-25T02:43:42.367Z,51.78
2017-07-25T02:44:42.391Z,51.88
2017-07-25T02:45:42.735Z,51.88
2017-07-25T02:46:42.770Z,51.78
2017-07-25T02:47:42.793Z,51.88
2017-07-25T02:48:42.817Z,51.76
2017-07-25T02:49:42.532Z,51.76
2017-07-25T02:50:42.876Z,51.68
2017-07-25T02:51:42.901Z,51.68
2017-07-25T02:52:42.938Z,51.78
2017-07-25T02:53:42.643Z,51.98
2017-07-25T02:54:42.983Z,51.98
2017-07-25T02:55:42.704Z,51.98
2017-07-25T02:56:42.725Z,51.76
2017-07-25T02:57:43.073Z,51.86
2017-07-25T02:58:42.790Z,51.78
2017-07-25T02:59:43.119Z,51.88
2017-07-25T03:00:43.404Z,51.98
2017-07-25T03:01:42.869Z,51.98
2017-07-25T03:02:43.210Z,51.78
2017-07-25T03:03:43.239Z,51.98
2017-07-25T03:04:43.264Z,51.98
2017-07-25T03:05:43.279Z,51.86
2017-07-25T03:06:43.316Z,52.05
2017-07-25T03:07:43.034Z,51.98
2017-07-25T03:08:43.372Z,51.88
2017-07-25T03:09:43.091Z,51.78
2017-07-25T03:10:43.364Z,51.95
2017-07-25T03:11:43.144Z,51.86
2017-07-25T03:12:43.486Z,51.95
2017-07-25T03:13:43.506Z,52.05
2017-07-25T03:14:43.538Z,51.76
2017-07-25T03:15:43.820Z,51.95
2017-07-25T03:16:43.597Z,52.08
2017-07-25T03:17:43.309Z,51.95
2017-07-25T03:18:43.336Z,52.05
2017-07-25T03:19:43.367Z,51.76
2017-07-25T03:20:43.696Z,51.95
2017-07-25T03:21:43.420Z,51.95
2017-07-25T03:22:43.450Z,52.05
2017-07-25T03:23:43.479Z,51.95
2017-07-25T03:24:43.819Z,51.86
2017-07-25T03:25:44.145Z,51.95
2017-07-25T03:26:43.873Z,52.14
2017-07-25T03:27:43.939Z,51.95
2017-07-25T03:28:43.926Z,51.86
2017-07-25T03:29:43.964Z,52.24
2017-07-25T03:30:44.297Z,51.66
2017-07-25T03:31:44.016Z,51.86
2017-07-25T03:32:43.727Z,52.24
2017-07-25T03:33:43.756Z,52.05
2017-07-25T03:34:44.097Z,52.24
2017-07-25T03:35:43.802Z,52.24
2017-07-25T03:36:43.840Z,51.66
2017-07-25T03:37:44.188Z,52.53
2017-07-25T03:38:44.203Z,52.14
2017-07-25T03:39:43.916Z,52.34
2017-07-25T03:40:44.257Z,52.24
2017-07-25T03:41:44.289Z,52.63
2017-07-25T03:42:44.326Z,52.17
2017-07-25T03:43:44.030Z,52.34
2017-07-25T03:44:44.059Z,52.53
2017-07-25T03:45:44.087Z,52.53
2017-07-25T03:46:44.429Z,52.53
2017-07-25T03:47:44.453Z,52.24
2017-07-25T03:48:44.164Z,52.24
2017-07-25T03:49:44.503Z,52.34
2017-07-25T03:50:44.589Z,52.24
2017-07-25T03:51:44.561Z,52.34
2017-07-25T03:52:44.585Z,52.36
2017-07-25T03:53:44.614Z,52.24
2017-07-25T03:54:44.333Z,52.44
2017-07-25T03:55:44.361Z,52.36
2017-07-25T03:56:44.693Z,52.17
2017-07-25T03:57:44.732Z,52.56
2017-07-25T03:58:44.447Z,52.53
2017-07-25T03:59:44.783Z,52.34
2017-07-25T04:00:44.812Z,52.63
2017-07-25T04:01:44.532Z,52.24
2017-07-25T04:02:44.870Z,52.24
2017-07-25T04:03:44.895Z,52.44
2017-07-25T04:04:44.628Z,52.24
2017-07-25T04:05:44.640Z,52.24
2017-07-25T04:06:44.973Z,52.27
2017-07-25T04:07:45.006Z,52.66
2017-07-25T04:08:45.033Z,52.27
2017-07-25T04:09:45.065Z,52.14
2017-07-25T04:10:44.780Z,52.24
2017-07-25T04:11:45.118Z,52.24
2017-07-25T04:12:45.148Z,53.21
2017-07-25T04:13:45.173Z,52.44
2017-07-25T04:14:45.200Z,52.44
2017-07-25T04:15:44.916Z,52.44
2017-07-25T04:16:45.258Z,52.73
2017-07-25T04:17:44.971Z,52.53
2017-07-25T04:18:44.998Z,52.73
2017-07-25T04:19:45.027Z,52.46
2017-07-25T04:20:45.063Z,53.21
2017-07-25T04:21:45.078Z,52.63
2017-07-25T04:22:45.422Z,52.24
2017-07-25T04:23:45.452Z,52.44
2017-07-25T04:24:45.471Z,52.44
2017-07-25T04:25:45.192Z,52.53
2017-07-25T04:26:45.221Z,52.44
2017-07-25T04:27:45.251Z,52.63
2017-07-25T04:28:45.587Z,52.44
2017-07-25T04:29:45.612Z,52.24
2017-07-25T04:30:45.333Z,52.44
2017-07-25T04:31:45.669Z,52.44
2017-07-25T04:32:45.386Z,52.14
2017-07-25T04:33:45.733Z,52.24
2017-07-25T04:34:45.444Z,52.44
2017-07-25T04:35:45.781Z,52.36
2017-07-25T04:36:45.813Z,52.44
2017-07-25T04:37:45.846Z,52.92
2017-07-25T04:38:45.867Z,52.24
2017-07-25T04:39:45.580Z,52.34
2017-07-25T04:40:45.609Z,52.17
2017-07-25T04:41:45.949Z,52.53
2017-07-25T04:42:45.663Z,52.44
2017-07-25T04:43:45.701Z,52.14
2017-07-25T04:44:45.720Z,52.44
2017-07-25T04:45:46.060Z,52.24
2017-07-25T04:46:46.093Z,52.24
2017-07-25T04:47:45.806Z,52.44
2017-07-25T04:48:45.831Z,52.34
2017-07-25T04:49:46.164Z,52.34
2017-07-25T04:50:46.220Z,52.34
2017-07-25T04:51:46.225Z,52.34
2017-07-25T04:52:45.942Z,52.14
2017-07-25T04:53:45.963Z,52.53
2017-07-25T04:54:46.304Z,52.34
2017-07-25T04:55:46.337Z,52.53
2017-07-25T04:56:46.300Z,52.44
2017-07-25T04:57:46.395Z,52.44
2017-07-25T04:58:46.418Z,52.63
2017-07-25T04:59:46.444Z,52.14
2017-07-25T05:00:46.161Z,52.44
2017-07-25T05:01:46.756Z,52.34
2017-07-25T05:02:46.214Z,52.53
2017-07-25T05:03:46.556Z,52.24
2017-07-25T05:04:46.579Z,52.34
2017-07-25T05:05:46.619Z,52.53
2017-07-25T05:06:46.625Z,52.34
2017-07-25T05:07:46.666Z,52.34
2017-07-25T05:08:46.388Z,52.44
2017-07-25T05:09:46.730Z,52.34
2017-07-25T05:10:46.749Z,52.34
2017-07-25T05:11:46.716Z,52.34
2017-07-25T05:12:46.495Z,52.34
2017-07-25T05:13:46.831Z,52.34
2017-07-25T05:14:46.855Z,52.14
2017-07-25T05:15:46.608Z,52.14
2017-07-25T05:16:46.861Z,52.44
2017-07-25T05:17:46.942Z,52.24
2017-07-25T05:18:46.656Z,52.34
2017-07-25T05:19:46.686Z,52.14
2017-07-25T05:20:47.023Z,52.53
2017-07-25T05:21:47.305Z,53.02
2017-07-25T05:22:47.082Z,52.44
2017-07-25T05:23:47.107Z,52.24
2017-07-25T05:24:47.136Z,52.53
2017-07-25T05:25:46.853Z,52.34
2017-07-25T05:26:46.882Z,53.21
2017-07-25T05:27:47.214Z,52.92
2017-07-25T05:28:46.936Z,53.21
2017-07-25T05:29:47.271Z,52.53
2017-07-25T05:30:47.302Z,52.34
2017-07-25T05:31:47.329Z,52.92
2017-07-25T05:32:47.358Z,52.92
2017-07-25T05:33:47.385Z,52.82
2017-07-25T05:34:47.417Z,52.73
2017-07-25T05:35:47.445Z,52.92
2017-07-25T05:36:47.474Z,53.02
2017-07-25T05:37:47.493Z,53.11
2017-07-25T05:38:47.211Z,52.92
2017-07-25T05:39:47.235Z,52.82
2017-07-25T05:40:47.268Z,52.63
2017-07-25T05:41:47.605Z,52.82
2017-07-25T05:42:47.635Z,52.73
2017-07-25T05:43:47.656Z,52.82
2017-07-25T05:44:47.380Z,52.73
2017-07-25T05:45:47.716Z,52.73
2017-07-25T05:46:47.433Z,52.73
2017-07-25T05:47:47.774Z,52.63
2017-07-25T05:48:47.801Z,52.82
2017-07-25T05:49:47.825Z,53.21
2017-07-25T05:50:47.545Z,53.11
2017-07-25T05:51:47.582Z,52.82
2017-07-25T05:52:47.602Z,52.82
2017-07-25T05:53:47.939Z,52.82
2017-07-25T05:54:47.963Z,53.11
2017-07-25T05:55:47.996Z,52.73
2017-07-25T05:56:47.708Z,52.73
2017-07-25T05:57:48.048Z,53.21
2017-07-25T05:58:47.766Z,52.92
2017-07-25T05:59:48.105Z,52.92
2017-07-25T06:00:48.134Z,52.92
2017-07-25T06:01:47.850Z,52.24
2017-07-25T06:02:48.178Z,52.73
2017-07-25T06:03:48.215Z,52.92
2017-07-25T06:04:48.240Z,52.24
2017-07-25T06:05:47.947Z,52.92
2017-07-25T06:06:48.296Z,53.02
2017-07-25T06:07:48.326Z,52.92
2017-07-25T06:08:48.355Z,53.11
2017-07-25T06:09:48.381Z,52.73
2017-07-25T06:10:48.408Z,53.11
2017-07-25T06:11:48.437Z,52.82
2017-07-25T06:12:48.465Z,52.73
2017-07-25T06:13:48.179Z,52.92
2017-07-25T06:14:48.520Z,52.73
2017-07-25T06:15:48.236Z,53.02
2017-07-25T06:16:48.576Z,52.73
2017-07-25T06:17:48.291Z,52.82
2017-07-25T06:18:48.630Z,52.92
2017-07-25T06:19:48.660Z,53.02
2017-07-25T06:20:48.372Z,52.73
2017-07-25T06:21:48.714Z,52.82
2017-07-25T06:22:48.430Z,52.82
2017-07-25T06:23:48.457Z,52.82
2017-07-25T06:24:48.479Z,52.82
2017-07-25T06:25:48.830Z,52.92
2017-07-25T06:26:48.541Z,53.5
2017-07-25T06:27:48.882Z,52.82
2017-07-25T06:28:48.593Z,53.02
2017-07-25T06:29:48.934Z,52.92
2017-07-25T06:30:48.968Z,53.5
2017-07-25T06:31:49.014Z,53.11
2017-07-25T06:32:48.706Z,53.59
2017-07-25T06:33:49.049Z,52.92
2017-07-25T06:34:49.074Z,52.73
2017-07-25T06:35:48.812Z,53.31
2017-07-25T06:36:49.138Z,52.92
2017-07-25T06:37:49.162Z,52.73
2017-07-25T06:38:49.183Z,52.82
2017-07-25T06:39:49.212Z,53.21
2017-07-25T06:40:49.240Z,53.41
2017-07-25T06:41:49.266Z,52.82
2017-07-25T06:42:48.983Z,52.82
2017-07-25T06:43:49.323Z,53.31
2017-07-25T06:44:49.346Z,53.11
2017-07-25T06:45:49.065Z,53.31
2017-07-25T06:46:49.092Z,53.11
2017-07-25T06:47:49.735Z,53.31
2017-07-25T06:48:49.458Z,53.31
2017-07-25T06:49:49.487Z,52.92
2017-07-25T06:50:49.517Z,53.41
2017-07-25T06:51:49.548Z,53.21
2017-07-25T06:52:49.818Z,53.21
2017-07-25T06:53:49.598Z,53.21
2017-07-25T06:54:49.627Z,53.21
2017-07-25T06:55:49.656Z,53.21
2017-07-25T06:56:49.360Z,53.99
2017-07-25T06:57:49.954Z,53.99
2017-07-25T06:58:49.745Z,53.69
2017-07-25T06:59:49.759Z,53.79
2017-07-25T07:00:49.793Z,53.79
2017-07-25T07:01:49.841Z,53.89
2017-07-25T07:02:50.094Z,53.79
2017-07-25T07:03:49.867Z,53.99
2017-07-25T07:04:49.898Z,54.17
2017-07-25T07:05:49.619Z,54.17
2017-07-25T07:06:49.957Z,54.37
2017-07-25T07:07:50.233Z,54.17
2017-07-25T07:08:50.011Z,53.79
2017-07-25T07:09:50.042Z,53.79
2017-07-25T07:10:50.064Z,53.69
2017-07-25T07:11:49.784Z,53.89
2017-07-25T07:12:50.127Z,53.89
2017-07-25T07:13:50.151Z,53.59
2017-07-25T07:14:50.184Z,53.69
2017-07-25T07:15:50.208Z,53.69
2017-07-25T07:16:49.930Z,53.69
2017-07-25T07:17:50.262Z,53.69
2017-07-25T07:18:49.978Z,53.79
2017-07-25T07:19:50.316Z,53.99
2017-07-25T07:20:50.349Z,53.89
2017-07-25T07:21:50.373Z,53.5
2017-07-25T07:22:50.407Z,53.89
2017-07-25T07:23:50.115Z,53.69
2017-07-25T07:24:50.456Z,53.59
2017-07-25T07:25:50.173Z,53.89
2017-07-25T07:26:50.513Z,53.59
2017-07-25T07:27:50.542Z,53.69
2017-07-25T07:28:50.570Z,53.69
2017-07-25T07:29:50.588Z,53.89
2017-07-25T07:30:50.623Z,54.08
2017-07-25T07:31:50.658Z,53.89
2017-07-25T07:32:50.679Z,53.59
2017-07-25T07:33:50.706Z,53.59
2017-07-25T07:34:50.424Z,53.79
2017-07-25T07:35:50.763Z,53.79
2017-07-25T07:36:50.794Z,53.79
2017-07-25T07:37:50.819Z,53.21
2017-07-25T07:38:50.844Z,53.99
2017-07-25T07:39:50.871Z,53.89
2017-07-25T07:40:50.891Z,53.79
2017-07-25T07:41:50.931Z,53.89
2017-07-25T07:42:50.651Z,53.59
2017-07-25T07:43:50.987Z,53.59
2017-07-25T07:44:51.043Z,53.79
2017-07-25T07:45:51.040Z,54.17
2017-07-25T07:46:51.070Z,53.99
2017-07-25T07:47:51.090Z,54.47
2017-07-25T07:48:50.815Z,54.17
2017-07-25T07:49:50.836Z,54.47
2017-07-25T07:50:51.193Z,53.79
2017-07-25T07:51:50.898Z,54.17
2017-07-25T07:52:51.237Z,54.17
2017-07-25T07:53:50.954Z,53.59
2017-07-25T07:54:51.288Z,53.5
2017-07-25T07:55:51.323Z,54.17
2017-07-25T07:56:51.347Z,53.69
2017-07-25T07:57:51.073Z,53.69
2017-07-25T07:58:51.699Z,53.69
2017-07-25T07:59:51.429Z,53.99
2017-07-25T08:00:51.481Z,53.89
2017-07-25T08:01:51.492Z,54.08
2017-07-25T08:02:51.207Z,53.59
2017-07-25T08:03:51.790Z,53.59
2017-07-25T08:04:51.573Z,53.79
2017-07-25T08:05:51.285Z,53.69
2017-07-25T08:06:51.316Z,53.69
2017-07-25T08:07:51.650Z,53.99
2017-07-25T08:08:51.978Z,53.59
2017-07-25T08:09:51.700Z,53.69
2017-07-25T08:10:51.732Z,53.89
2017-07-25T08:11:51.761Z,54.08
2017-07-25T08:12:51.480Z,54.17
2017-07-25T08:13:51.807Z,53.5
2017-07-25T08:14:51.528Z,53.79
2017-07-25T08:15:51.877Z,53.69
2017-07-25T08:16:51.900Z,53.81
2017-07-25T08:17:51.935Z,53.69
2017-07-25T08:18:52.208Z,53.79
2017-07-25T08:19:51.980Z,53.59
2017-07-25T08:20:52.013Z,54.08
2017-07-25T08:21:51.731Z,53.69
2017-07-25T08:22:52.064Z,53.69
2017-07-25T08:23:52.092Z,53.41
2017-07-25T08:24:52.122Z,53.5
2017-07-25T08:25:52.156Z,53.41
2017-07-25T08:26:52.177Z,53.89
2017-07-25T08:27:52.199Z,53.99
2017-07-25T08:28:52.239Z,53.69
2017-07-25T08:29:51.947Z,53.89
2017-07-25T08:30:51.980Z,53.79
2017-07-25T08:31:52.312Z,53.69
2017-07-25T08:32:52.346Z,53.69
2017-07-25T08:33:52.059Z,53.89
2017-07-25T08:34:52.406Z,53.89
2017-07-25T08:35:52.113Z,53.11
2017-07-25T08:36:52.144Z,53.89
2017-07-25T08:37:52.486Z,53.21
2017-07-25T08:38:52.511Z,53.21
2017-07-25T08:39:52.539Z,53.02
2017-07-25T08:40:52.565Z,53.21
2017-07-25T08:41:52.294Z,53.21
2017-07-25T08:42:52.626Z,53.31
2017-07-25T08:43:52.338Z,53.41
2017-07-25T08:44:52.672Z,53.31
2017-07-25T08:45:52.709Z,53.5
2017-07-25T08:46:52.424Z,53.21
2017-07-25T08:47:52.769Z,53.02
2017-07-25T08:48:52.477Z,53.31
2017-07-25T08:49:52.508Z,53.11
2017-07-25T08:50:52.848Z,53.11
2017-07-25T08:51:52.881Z,53.41
2017-07-25T08:52:52.617Z,53.41
2017-07-25T08:53:52.931Z,53.21
2017-07-25T08:54:52.959Z,53.21
2017-07-25T08:55:52.682Z,53.21
2017-07-25T08:56:52.701Z,53.11
2017-07-25T08:57:53.042Z,53.31
2017-07-25T08:58:53.066Z,53.41
2017-07-25T08:59:53.091Z,53.41
2017-07-25T09:00:53.128Z,53.21
2017-07-25T09:01:52.843Z,53.21
2017-07-25T09:02:53.178Z,53.21
2017-07-25T09:03:52.894Z,53.31
2017-07-25T09:04:53.538Z,53.31
2017-07-25T09:05:53.264Z,53.02
2017-07-25T09:06:52.977Z,53.31
2017-07-25T09:07:53.006Z,53.5
2017-07-25T09:08:53.347Z,53.02
2017-07-25T09:09:53.316Z,53.21
2017-07-25T09:10:53.409Z,53.02
2017-07-25T09:11:53.117Z,53.21
2017-07-25T09:12:53.462Z,53.02
2017-07-25T09:13:53.175Z,53.31
2017-07-25T09:14:53.765Z,53.21
2017-07-25T09:15:53.228Z,53.31
2017-07-25T09:16:53.572Z,53.41
2017-07-25T09:17:53.599Z,53.11
2017-07-25T09:18:53.625Z,53.21
2017-07-25T09:19:53.595Z,53.21
2017-07-25T09:20:53.679Z,53.31
2017-07-25T09:21:53.396Z,53.11
2017-07-25T09:22:53.740Z,53.5
2017-07-25T09:23:53.452Z,53.02
2017-07-25T09:24:54.090Z,53.31
2017-07-25T09:25:53.819Z,53.21
2017-07-25T09:26:53.880Z,53.21
2017-07-25T09:27:53.873Z,53.99
2017-07-25T09:28:53.909Z,53.89
2017-07-25T09:29:54.189Z,53.89
2017-07-25T09:30:53.960Z,53.89
2017-07-25T09:31:53.984Z,53.59
2017-07-25T09:32:53.704Z,53.59
2017-07-25T09:33:54.041Z,54.17
2017-07-25T09:34:53.785Z,53.59
2017-07-25T09:35:54.096Z,53.69
2017-07-25T09:36:53.812Z,53.59
2017-07-25T09:37:53.841Z,53.59
2017-07-25T09:38:54.178Z,53.99
2017-07-25T09:39:54.207Z,54.37
2017-07-25T09:40:54.235Z,53.99
2017-07-25T09:41:54.264Z,54.08
2017-07-25T09:42:53.978Z,53.89
2017-07-25T09:43:54.318Z,53.99
2017-07-25T09:44:54.347Z,53.69
2017-07-25T09:45:54.376Z,53.59
2017-07-25T09:46:54.088Z,53.79
2017-07-25T09:47:54.431Z,53.79
2017-07-25T09:48:54.456Z,53.59
2017-07-25T09:49:54.175Z,53.89
2017-07-25T09:50:54.515Z,53.59
2017-07-25T09:51:54.229Z,53.89
2017-07-25T09:52:54.254Z,53.89
2017-07-25T09:53:54.598Z,53.31
2017-07-25T09:54:54.627Z,53.99
2017-07-25T09:55:54.340Z,54.17
2017-07-25T09:56:54.369Z,53.99
2017-07-25T09:57:54.706Z,53.69
2017-07-25T09:58:54.759Z,54.08
2017-07-25T09:59:54.763Z,53.41
2017-07-25T10:00:54.481Z,53.99
2017-07-25T10:01:54.508Z,53.02
2017-07-25T10:02:54.845Z,53.11
2017-07-25T10:03:54.874Z,53.21
2017-07-25T10:04:54.924Z,53.21
2017-07-25T10:05:54.941Z,53.31
2017-07-25T10:06:54.961Z,53.41
2017-07-25T10:07:54.985Z,53.31
2017-07-25T10:08:55.015Z,53.21
2017-07-25T10:09:54.733Z,53.21
2017-07-25T10:10:55.075Z,53.31
2017-07-25T10:11:55.119Z,53.11
2017-07-25T10:12:55.128Z,53.11
2017-07-25T10:13:54.839Z,53.21
2017-07-25T10:14:55.183Z,53.5
2017-07-25T10:15:55.208Z,53.31
2017-07-25T10:16:55.243Z,53.89
2017-07-25T10:17:55.265Z,53.11
2017-07-25T10:18:55.291Z,53.21
2017-07-25T10:19:55.322Z,53.14
2017-07-25T10:20:55.349Z,53.14
2017-07-25T10:21:55.377Z,53.33
2017-07-25T10:22:55.089Z,53.43
2017-07-25T10:23:55.117Z,53.33
2017-07-25T10:24:55.466Z,53.04
2017-07-25T10:25:55.492Z,52.85
2017-07-25T10:26:55.516Z,52.85
2017-07-25T10:27:55.546Z,52.75
2017-07-25T10:28:55.566Z,52.95
2017-07-25T10:29:55.595Z,52.46
2017-07-25T10:30:55.316Z,52.36
2017-07-25T10:31:55.657Z,52.17
2017-07-25T10:32:55.377Z,52.66
2017-07-25T10:33:55.398Z,52.36
2017-07-25T10:34:55.745Z,52.49
2017-07-25T10:35:55.776Z,52
2017-07-25T10:36:55.796Z,52.49
2017-07-25T10:37:55.513Z,52.2
2017-07-25T10:38:55.850Z,52
2017-07-25T10:39:55.571Z,51.81
2017-07-25T10:40:55.856Z,52
2017-07-25T10:41:55.944Z,52
2017-07-25T10:42:55.660Z,52.1
2017-07-25T10:43:56.005Z,51.9
2017-07-25T10:44:56.023Z,52
2017-07-25T10:45:56.322Z,52
2017-07-25T10:46:56.086Z,52
2017-07-25T10:47:55.797Z,51.81
2017-07-25T10:48:56.139Z,51.81
2017-07-25T10:49:55.855Z,52.2
2017-07-25T10:50:56.444Z,51.81
2017-07-25T10:51:56.238Z,51.62
2017-07-25T10:52:55.943Z,51.62
2017-07-25T10:53:56.293Z,51.81
2017-07-25T10:54:56.311Z,51.9
2017-07-25T10:55:56.584Z,52.1
2017-07-25T10:56:56.369Z,51.52
2017-07-25T10:57:56.390Z,51.32
2017-07-25T10:58:56.414Z,51.32
2017-07-25T10:59:56.452Z,51.42
2017-07-25T11:00:56.468Z,51.52
2017-07-25T11:01:56.520Z,51.72
2017-07-25T11:02:56.222Z,51.23
2017-07-25T11:03:56.251Z,51.23
2017-07-25T11:04:56.590Z,51.13
2017-07-25T11:05:56.916Z,51.32
2017-07-25T11:06:56.652Z,51.04
2017-07-25T11:07:56.677Z,51.9
2017-07-25T11:08:56.710Z,51.72
2017-07-25T11:09:56.735Z,51.74
2017-07-25T11:10:57.012Z,51.64
2017-07-25T11:11:56.792Z,51.62
2017-07-25T11:12:56.824Z,52.39
2017-07-25T11:13:56.851Z,52.29
2017-07-25T11:14:56.567Z,52.39
2017-07-25T11:15:57.167Z,52.39
2017-07-25T11:16:56.936Z,52.58
2017-07-25T11:17:56.965Z,52.58
2017-07-25T11:18:56.991Z,52.68
2017-07-25T11:19:56.706Z,52.49
2017-07-25T11:20:57.300Z,52.49
2017-07-25T11:21:56.769Z,52.97
2017-07-25T11:22:56.793Z,52.68
2017-07-25T11:23:56.822Z,52.49
2017-07-25T11:24:57.164Z,52.58
2017-07-25T11:25:57.503Z,53.26
2017-07-25T11:26:57.217Z,52.58
2017-07-25T11:27:57.255Z,52.97
2017-07-25T11:28:57.277Z,52.29
2017-07-25T11:29:56.990Z,52.39
2017-07-25T11:30:57.632Z,52.39
2017-07-25T11:31:57.048Z,52.68
2017-07-25T11:32:57.396Z,52.49
2017-07-25T11:33:57.106Z,53.17
2017-07-25T11:34:57.137Z,52.97
2017-07-25T11:35:57.731Z,52.97
2017-07-25T11:36:57.505Z,53.75
2017-07-25T11:37:57.536Z,53.94
2017-07-25T11:38:57.567Z,54.13
2017-07-25T11:39:57.598Z,54.81
2017-07-25T11:40:57.870Z,54.03
2017-07-25T11:41:57.651Z,53.55
2017-07-25T11:42:57.678Z,53.26
2017-07-25T11:43:57.708Z,53.55
2017-07-25T11:44:57.728Z,53.26
2017-07-25T11:45:58.011Z,53.07
2017-07-25T11:46:57.788Z,52.97
2017-07-25T11:47:57.818Z,53.75
2017-07-25T11:48:57.850Z,53.36
2017-07-25T11:49:57.875Z,53.19
2017-07-25T11:50:58.200Z,52.8
2017-07-25T11:51:57.933Z,53.39
2017-07-25T11:52:57.650Z,52.93
2017-07-25T11:53:57.678Z,51.57
2017-07-25T11:54:58.019Z,51.59
2017-07-25T11:55:58.040Z,51.31
2017-07-25T11:56:58.097Z,51.79
2017-07-25T11:57:58.107Z,50.74
2017-07-25T11:58:58.140Z,50.94
2017-07-25T11:59:58.168Z,50.46
2017-07-25T12:00:58.195Z,50.16
2017-07-25T12:01:58.229Z,49.9
2017-07-25T12:02:57.937Z,50.19
2017-07-25T12:03:58.289Z,50.16
2017-07-25T12:04:58.315Z,49.97
2017-07-25T12:05:58.344Z,49.68
2017-07-25T12:06:58.373Z,49.77
2017-07-25T12:07:58.413Z,49.87
2017-07-25T12:08:58.434Z,49.29
2017-07-25T12:09:58.467Z,49.49
2017-07-25T12:10:58.183Z,49.77
2017-07-25T12:11:58.529Z,49.97
2017-07-25T12:12:58.553Z,49.95
2017-07-25T12:13:58.575Z,49.66
2017-07-25T12:14:58.607Z,50.24
2017-07-25T12:15:58.333Z,50.24
2017-07-25T12:16:58.666Z,50.21
2017-07-25T12:17:58.694Z,50.31
2017-07-25T12:18:58.411Z,51.47
2017-07-25T12:19:58.443Z,51.28
2017-07-25T12:20:58.472Z,50.79
2017-07-25T12:21:58.815Z,51.47
2017-07-25T12:22:58.850Z,51.45
2017-07-25T12:23:58.555Z,50.96
2017-07-25T12:24:58.592Z,51.35
2017-07-25T12:25:58.617Z,52.03
2017-07-25T12:26:58.955Z,51.93
2017-07-25T12:27:58.986Z,51.93
2017-07-25T12:28:58.699Z,51.93
2017-07-25T12:29:58.751Z,52.42
2017-07-25T12:30:58.765Z,52.39
2017-07-25T12:31:59.106Z,52.42
2017-07-25T12:32:58.819Z,51.84
2017-07-25T12:33:58.847Z,52.61
2017-07-25T12:34:59.180Z,52.03
2017-07-25T12:35:58.903Z,52.61
2017-07-25T12:36:59.245Z,52.32
2017-07-25T12:37:59.270Z,52.03
2017-07-25T12:38:59.299Z,52.12
2017-07-25T12:39:59.327Z,51.93
2017-07-25T12:40:59.360Z,51.67
2017-07-25T12:41:59.389Z,52.15
2017-07-25T12:42:59.422Z,51.47
2017-07-25T12:43:59.455Z,51.18
2017-07-25T12:44:59.483Z,50.53
2017-07-25T12:45:59.507Z,50.92
2017-07-25T12:46:59.552Z,51.4
2017-07-25T12:47:59.578Z,50.43
2017-07-25T12:48:59.288Z,50.43
2017-07-25T12:49:59.628Z,50.65
2017-07-25T12:50:59.661Z,50.56
2017-07-25T12:51:59.693Z,50.36
2017-07-25T12:52:59.718Z,50.65
2017-07-25T12:53:59.747Z,50.26
2017-07-25T12:54:59.771Z,50.07
2017-07-25T12:55:59.507Z,50.26
2017-07-25T12:56:59.524Z,50.65